createdAt,value
2023-01-20T00:01:26.388Z,27.90
2023-01-20T00:03:55.566Z,26.25
2023-01-20T00:06:24.489Z,30.75
2023-01-20T00:08:52.871Z,28.77
2023-01-20T00:11:21.933Z,28.67
2023-01-20T00:13:55.187Z,27.58
2023-01-20T00:16:23.848Z,26.75
2023-01-20T00:18:52.708Z,29.63
2023-01-20T00:21:21.279Z,28.58
2023-01-20T00:23:50.363Z,28.45
2023-01-20T00:26:20.204Z,28.27
2023-01-20T00:28:49.824Z,28.58
2023-01-20T00:31:21.633Z,25.38
2023-01-20T00:33:51.341Z,27.83
2023-01-20T00:36:21.214Z,24.88
2023-01-20T00:38:49.489Z,27.60
2023-01-20T00:41:18.057Z,29.57
2023-01-20T00:43:46.741Z,27.98
2023-01-20T00:46:15.121Z,27.45
2023-01-20T00:48:44.769Z,30.05
2023-01-20T00:51:13.841Z,29.73
2023-01-20T00:53:42.280Z,28.95
2023-01-20T00:56:10.522Z,31.50
2023-01-20T00:58:38.780Z,31.70
2023-01-20T01:01:07.394Z,30.45
2023-01-20T01:03:35.783Z,31.95
2023-01-20T01:06:10.911Z,28.33
2023-01-20T01:08:39.124Z,33.45
2023-01-20T01:11:08.034Z,34.97
2023-01-20T01:13:37.275Z,37.63
2023-01-20T01:16:06.155Z,31.35
2023-01-20T01:18:34.391Z,28.85
2023-01-20T01:21:09.436Z,29.43
2023-01-20T01:23:37.845Z,32.08
2023-01-20T01:26:06.245Z,34.17
2023-01-20T01:28:34.478Z,33.80
2023-01-20T01:31:03.304Z,33.92
2023-01-20T01:33:31.935Z,30.25
2023-01-20T01:36:02.892Z,31.00
2023-01-20T01:38:32.559Z,32.90
2023-01-20T01:41:00.939Z,32.90
2023-01-20T01:43:30.943Z,32.28
2023-01-20T01:45:59.855Z,28.23
2023-01-20T01:48:32.559Z,29.23
2023-01-20T01:51:06.914Z,33.67
2023-01-20T01:53:41.587Z,29.63
2023-01-20T01:56:11.157Z,33.58
2023-01-20T01:58:43.384Z,25.75
2023-01-20T02:01:12.178Z,30.17
2023-01-20T02:03:46.148Z,31.52
2023-01-20T02:06:15.403Z,32.92
2023-01-20T02:08:45.481Z,26.80
2023-01-20T02:11:13.742Z,33.70
2023-01-20T02:13:42.204Z,32.47
2023-01-20T02:16:16.184Z,35.30
2023-01-20T02:18:56.444Z,32.63
2023-01-20T02:22:06.923Z,31.63
2023-01-20T02:25:12.177Z,31.27
2023-01-20T02:28:21.645Z,31.35
2023-01-20T02:31:29.581Z,36.17
2023-01-20T02:34:03.284Z,26.58
2023-01-20T02:36:41.923Z,32.55
2023-01-20T02:39:27.400Z,29.75
2023-01-20T02:42:00.175Z,28.02
2023-01-20T02:44:34.214Z,29.90
2023-01-20T02:47:08.714Z,30.10
2023-01-20T02:49:46.301Z,31.33
2023-01-20T02:52:16.992Z,31.40
2023-01-20T02:54:49.965Z,30.50
2023-01-20T02:57:22.754Z,29.83
2023-01-20T02:59:57.409Z,28.95
2023-01-20T03:02:29.117Z,31.85
2023-01-20T03:05:04.021Z,30.83
2023-01-20T03:07:34.649Z,30.92
2023-01-20T03:10:07.596Z,30.38
2023-01-20T03:12:41.313Z,31.35
2023-01-20T03:15:11.236Z,31.30
2023-01-20T03:17:40.007Z,32.05
2023-01-20T03:20:11.278Z,25.40
2023-01-20T03:22:41.037Z,30.08
2023-01-20T03:25:11.323Z,25.02
2023-01-20T03:27:39.826Z,27.47
2023-01-20T03:30:13.326Z,29.08
2023-01-20T03:32:44.015Z,27.50
2023-01-20T03:35:16.159Z,26.88
2023-01-20T03:37:45.289Z,26.93
2023-01-20T03:40:15.888Z,26.38
2023-01-20T03:42:53.605Z,28.03
2023-01-20T03:45:29.996Z,23.77
2023-01-20T03:48:01.387Z,25.73
2023-01-20T03:50:38.063Z,28.83
2023-01-20T03:53:15.433Z,26.95
2023-01-20T03:55:48.203Z,29.77
2023-01-20T03:58:20.668Z,29.10
2023-01-20T04:00:51.667Z,32.17
2023-01-20T04:03:22.640Z,24.70
2023-01-20T04:05:53.073Z,33.00
2023-01-20T04:08:25.687Z,34.53
2023-01-20T04:10:56.620Z,33.90
2023-01-20T04:13:25.003Z,30.67
2023-01-20T04:15:53.482Z,34.05
2023-01-20T04:18:23.438Z,31.20
2023-01-20T04:20:58.200Z,31.35
2023-01-20T04:23:30.674Z,31.38
2023-01-20T04:25:59.024Z,33.10
2023-01-20T04:28:27.342Z,35.70
2023-01-20T04:30:55.666Z,33.17
2023-01-20T04:33:24.063Z,28.67
2023-01-20T04:35:53.685Z,33.70
2023-01-20T04:38:22.428Z,32.03
2023-01-20T04:40:50.717Z,31.67
2023-01-20T04:43:18.982Z,34.58
2023-01-20T04:45:47.255Z,28.88
2023-01-20T04:48:15.583Z,25.30
2023-01-20T04:50:44.014Z,28.77
2023-01-20T04:53:16.987Z,26.10
2023-01-20T04:55:45.200Z,20.13
2023-01-20T04:58:13.680Z,27.60
2023-01-20T05:00:43.693Z,26.63
2023-01-20T05:03:12.207Z,24.10
2023-01-20T05:05:40.470Z,23.37
2023-01-20T05:08:08.838Z,20.70
2023-01-20T05:10:39.097Z,20.25
2023-01-20T05:13:08.036Z,24.58
2023-01-20T05:15:36.299Z,24.15
2023-01-20T05:18:04.853Z,24.50
2023-01-20T05:20:33.047Z,23.30
2023-01-20T05:23:01.572Z,20.85
2023-01-20T05:25:30.162Z,25.10
2023-01-20T05:28:00.792Z,23.98
2023-01-20T05:30:29.534Z,19.85
2023-01-20T05:32:58.659Z,25.63
2023-01-20T05:35:27.122Z,22.63
2023-01-20T05:37:56.768Z,20.50
2023-01-20T05:40:25.027Z,27.03
2023-01-20T05:42:53.252Z,23.10
2023-01-20T05:45:22.915Z,27.30
2023-01-20T05:47:56.382Z,24.90
2023-01-20T05:50:24.957Z,19.85
2023-01-20T05:52:53.173Z,25.95
2023-01-20T05:55:21.875Z,25.65
2023-01-20T05:57:50.099Z,27.95
2023-01-20T06:00:19.804Z,26.15
2023-01-20T06:02:49.509Z,23.77
2023-01-20T06:05:18.426Z,26.40
2023-01-20T06:07:46.708Z,23.33
2023-01-20T06:10:15.099Z,23.48
2023-01-20T06:12:43.414Z,23.85
2023-01-20T06:15:12.946Z,22.23
2023-01-20T06:17:41.458Z,24.55
2023-01-20T06:20:12.593Z,23.60
2023-01-20T06:22:40.800Z,23.45
2023-01-20T06:25:09.547Z,26.02
2023-01-20T06:27:38.444Z,21.02
2023-01-20T06:30:07.872Z,21.30
2023-01-20T06:32:36.627Z,20.77
2023-01-20T06:35:05.097Z,23.30
2023-01-20T06:37:34.758Z,16.00
2023-01-20T06:40:03.142Z,19.60
2023-01-20T06:42:32.680Z,17.10
2023-01-20T06:45:01.205Z,17.13
2023-01-20T06:47:29.545Z,18.13
2023-01-20T06:49:57.801Z,18.25
2023-01-20T06:52:26.372Z,20.00
2023-01-20T06:54:55.989Z,19.88
2023-01-20T06:57:24.268Z,19.35
2023-01-20T06:59:52.464Z,16.60
2023-01-20T07:02:20.693Z,18.33
2023-01-20T07:04:48.963Z,18.77
2023-01-20T07:07:17.212Z,17.70
2023-01-20T07:09:45.553Z,23.00
2023-01-20T07:12:15.192Z,19.33
2023-01-20T07:14:43.386Z,16.77
2023-01-20T07:17:13.699Z,17.92
2023-01-20T07:19:42.009Z,17.57
2023-01-20T07:22:10.368Z,15.40
2023-01-20T07:24:38.760Z,16.85
2023-01-20T07:27:06.982Z,12.02
2023-01-20T07:29:38.002Z,15.48
2023-01-20T07:32:06.609Z,17.13
2023-01-20T07:34:35.268Z,18.38
2023-01-20T07:37:03.594Z,16.00
2023-01-20T07:39:31.890Z,14.18
2023-01-20T07:42:00.374Z,14.05
2023-01-20T07:44:28.627Z,12.40
2023-01-20T07:46:58.883Z,16.07
2023-01-20T07:49:27.376Z,18.40
2023-01-20T07:51:55.705Z,15.50
2023-01-20T07:54:24.030Z,18.88
2023-01-20T07:56:52.364Z,16.65
2023-01-20T07:59:20.745Z,17.67
2023-01-20T08:01:49.158Z,17.55
2023-01-20T08:04:19.120Z,18.05
2023-01-20T08:06:48.285Z,18.23
2023-01-20T08:09:16.459Z,20.07
2023-01-20T08:11:44.676Z,16.90
2023-01-20T08:14:12.893Z,17.07
2023-01-20T08:16:41.265Z,18.40
2023-01-20T08:19:09.761Z,21.27
2023-01-20T08:21:39.452Z,19.27
2023-01-20T08:24:08.002Z,20.83
2023-01-20T08:26:36.245Z,20.45
2023-01-20T08:29:05.692Z,19.98
2023-01-20T08:31:34.138Z,17.40
2023-01-20T08:34:02.688Z,19.02
2023-01-20T08:36:33.229Z,15.07
2023-01-20T08:39:05.302Z,20.30
2023-01-20T08:41:36.322Z,20.23
2023-01-20T08:44:07.235Z,18.25
2023-01-20T08:46:36.051Z,17.52
2023-01-20T08:49:08.093Z,20.25
2023-01-20T08:51:36.551Z,15.90
2023-01-20T08:54:06.690Z,19.10
2023-01-20T08:56:36.772Z,18.73
2023-01-20T08:59:05.601Z,16.08
2023-01-20T09:01:37.885Z,17.33
2023-01-20T09:04:07.643Z,19.67
2023-01-20T09:06:46.008Z,21.45
2023-01-20T09:09:16.523Z,21.85
2023-01-20T09:11:50.765Z,21.55
2023-01-20T09:14:19.557Z,19.13
2023-01-20T09:16:48.528Z,18.13
2023-01-20T09:19:17.022Z,18.37
2023-01-20T09:21:45.657Z,20.83
2023-01-20T09:24:15.255Z,20.80
2023-01-20T09:26:44.921Z,16.73
2023-01-20T09:29:15.132Z,17.90
2023-01-20T09:31:45.373Z,17.85
2023-01-20T09:34:19.180Z,14.98
2023-01-20T09:36:50.815Z,16.83
2023-01-20T09:39:38.524Z,17.35
2023-01-20T09:42:39.711Z,18.40
2023-01-20T09:45:24.708Z,14.17
2023-01-20T09:47:58.925Z,15.57
2023-01-20T09:50:52.727Z,16.83
2023-01-20T09:53:36.715Z,15.43
2023-01-20T09:56:12.920Z,21.90
2023-01-20T09:58:47.281Z,16.42
2023-01-20T10:01:19.959Z,18.85
2023-01-20T10:03:53.993Z,19.33
2023-01-20T10:06:26.951Z,16.38
2023-01-20T10:09:06.059Z,18.10
2023-01-20T10:11:41.434Z,20.77
2023-01-20T10:14:16.866Z,14.40
2023-01-20T10:16:51.339Z,14.68
2023-01-20T10:19:28.103Z,18.13
2023-01-20T10:22:04.759Z,15.57
2023-01-20T10:24:38.127Z,16.83
2023-01-20T10:27:07.847Z,17.60
2023-01-20T10:29:38.129Z,13.63
2023-01-20T10:32:14.673Z,16.58
2023-01-20T10:34:46.643Z,28.83
2023-01-20T10:37:15.928Z,17.52
2023-01-20T10:39:49.295Z,19.77
2023-01-20T10:42:20.395Z,17.43
2023-01-20T10:44:52.545Z,13.30
2023-01-20T10:47:27.111Z,10.98
2023-01-20T10:50:28.599Z,11.15
2023-01-20T10:53:21.921Z,9.95
2023-01-20T10:56:08.903Z,12.95
2023-01-20T10:58:41.985Z,11.40
2023-01-20T11:01:16.724Z,12.20
2023-01-20T11:03:47.835Z,14.90
2023-01-20T11:06:21.472Z,11.73
2023-01-20T11:08:50.618Z,11.43
2023-01-20T11:11:22.169Z,11.05
2023-01-20T11:13:53.126Z,12.93
2023-01-20T11:16:25.008Z,13.85
2023-01-20T11:19:01.422Z,11.00
2023-01-20T11:21:31.146Z,10.65
2023-01-20T11:24:00.884Z,12.48
2023-01-20T11:26:33.114Z,13.25
2023-01-20T11:29:05.243Z,8.93
2023-01-20T11:31:41.829Z,10.48
2023-01-20T11:34:22.899Z,8.97
2023-01-20T11:36:51.747Z,9.40
2023-01-20T11:39:27.609Z,9.98
2023-01-20T11:42:15.644Z,13.05
2023-01-20T11:44:46.505Z,9.90
2023-01-20T11:47:23.720Z,9.75
2023-01-20T11:50:26.448Z,9.30
2023-01-20T11:52:54.659Z,10.77
2023-01-20T11:55:24.457Z,8.20
2023-01-20T11:57:56.350Z,12.30
2023-01-20T12:00:38.559Z,11.00
2023-01-20T12:03:22.855Z,14.55
2023-01-20T12:05:56.789Z,9.38
2023-01-20T12:08:31.857Z,9.75
2023-01-20T12:11:04.626Z,8.60
2023-01-20T12:13:59.406Z,9.93
2023-01-20T12:16:31.878Z,9.73
2023-01-20T12:19:05.511Z,5.70
2023-01-20T12:21:38.212Z,9.93
2023-01-20T12:24:14.258Z,9.73
2023-01-20T12:26:42.507Z,8.20
2023-01-20T12:29:19.569Z,8.02
2023-01-20T12:31:50.157Z,7.73
2023-01-20T12:34:24.659Z,8.13
2023-01-20T12:37:09.715Z,8.30
2023-01-20T12:39:53.268Z,6.43
2023-01-20T12:42:39.628Z,9.77
2023-01-20T12:45:21.721Z,9.13
2023-01-20T12:48:06.009Z,8.00
2023-01-20T12:50:50.373Z,6.97
2023-01-20T12:53:38.995Z,6.50
2023-01-20T12:56:17.831Z,8.95
2023-01-20T12:58:53.565Z,9.80
2023-01-20T13:01:41.101Z,6.97
2023-01-20T13:04:45.592Z,13.85
2023-01-20T13:07:40.003Z,14.07
2023-01-20T13:10:23.142Z,10.65
2023-01-20T13:13:04.868Z,13.50
2023-01-20T13:15:38.099Z,62.33
2023-01-20T13:18:24.514Z,32.15
2023-01-20T13:20:55.552Z,18.13
2023-01-20T13:23:28.505Z,9.63
2023-01-20T13:25:58.503Z,5.10
2023-01-20T13:28:29.261Z,7.72
2023-01-20T13:30:59.226Z,6.90
2023-01-20T13:33:37.526Z,19.95
2023-01-20T13:36:19.005Z,10.70
2023-01-20T13:38:48.164Z,6.67
2023-01-20T13:41:48.772Z,12.18
2023-01-20T13:44:35.309Z,9.73
2023-01-20T13:47:08.751Z,8.40
2023-01-20T13:49:53.158Z,6.20
2023-01-20T13:52:55.326Z,7.50
2023-01-20T13:55:31.651Z,11.25
2023-01-20T13:58:00.213Z,8.15
2023-01-20T14:00:28.592Z,13.13
2023-01-20T14:02:56.997Z,7.88
2023-01-20T14:05:32.079Z,16.48
2023-01-20T14:08:01.074Z,15.13
2023-01-20T14:10:30.952Z,11.10
2023-01-20T14:12:59.684Z,14.85
2023-01-20T14:15:49.253Z,12.30
2023-01-20T14:18:19.822Z,17.80
2023-01-20T14:21:04.225Z,28.00
2023-01-20T14:23:36.316Z,14.18
2023-01-20T14:26:11.225Z,30.77
2023-01-20T14:28:49.674Z,9.88
2023-01-20T14:31:40.749Z,12.10
2023-01-20T14:34:28.865Z,9.60
2023-01-20T14:36:59.532Z,25.20
2023-01-20T14:39:29.697Z,23.52
2023-01-20T14:42:00.739Z,16.33
2023-01-20T14:44:30.923Z,15.82
2023-01-20T14:47:01.535Z,6.35
2023-01-20T14:49:33.879Z,9.55
2023-01-20T14:52:02.956Z,13.75
2023-01-20T14:54:44.887Z,10.80
2023-01-20T14:57:27.789Z,9.50
2023-01-20T15:00:27.584Z,11.50
2023-01-20T15:03:10.372Z,18.45
2023-01-20T15:05:41.444Z,13.05
2023-01-20T15:08:25.513Z,5.30
2023-01-20T15:11:24.572Z,10.40
2023-01-20T15:14:13.891Z,6.85
2023-01-20T15:16:49.480Z,14.13
2023-01-20T15:19:34.010Z,19.88
2023-01-20T15:22:20.726Z,11.57
2023-01-20T15:24:50.621Z,11.98
2023-01-20T15:27:28.891Z,10.40
2023-01-20T15:30:04.276Z,16.73
2023-01-20T15:32:32.643Z,13.20
2023-01-20T15:35:00.944Z,11.60
2023-01-20T15:37:29.289Z,12.20
2023-01-20T15:39:59.046Z,10.18
2023-01-20T15:42:27.461Z,18.58
2023-01-20T15:44:55.929Z,13.35
2023-01-20T15:47:31.132Z,12.93
2023-01-20T15:49:59.879Z,20.10
2023-01-20T15:52:28.447Z,15.23
2023-01-20T15:54:58.761Z,14.77
2023-01-20T15:57:27.470Z,12.85
2023-01-20T15:59:55.852Z,6.47
2023-01-20T16:02:25.545Z,10.43
2023-01-20T16:04:53.857Z,10.40
2023-01-20T16:07:22.244Z,22.75
2023-01-20T16:09:50.930Z,23.77
2023-01-20T16:12:20.196Z,14.43
2023-01-20T16:14:48.468Z,14.32
2023-01-20T16:17:19.317Z,12.20
2023-01-20T16:19:49.193Z,15.00
2023-01-20T16:22:17.871Z,16.85
2023-01-20T16:24:48.984Z,16.45
2023-01-20T16:27:19.646Z,21.50
2023-01-20T16:29:48.883Z,24.20
2023-01-20T16:32:22.130Z,14.25
2023-01-20T16:34:52.150Z,14.57
2023-01-20T16:37:20.626Z,12.02
2023-01-20T16:39:48.814Z,10.65
2023-01-20T16:42:17.350Z,24.25
2023-01-20T16:44:45.767Z,11.70
2023-01-20T16:47:13.964Z,14.48
2023-01-20T16:49:42.497Z,13.07
2023-01-20T16:52:14.067Z,13.20
2023-01-20T16:54:42.598Z,12.80
2023-01-20T16:57:11.464Z,13.40
2023-01-20T16:59:39.881Z,12.57
2023-01-20T17:02:11.017Z,11.40
2023-01-20T17:04:39.357Z,12.53
2023-01-20T17:07:08.278Z,12.00
2023-01-20T17:09:37.935Z,12.63
2023-01-20T17:12:06.569Z,11.52
2023-01-20T17:14:35.251Z,10.80
2023-01-20T17:17:03.766Z,11.45
2023-01-20T17:19:32.133Z,9.35
2023-01-20T17:22:00.542Z,9.05
2023-01-20T17:24:28.940Z,10.20
2023-01-20T17:26:58.684Z,12.70
2023-01-20T17:29:27.086Z,13.65
2023-01-20T17:31:55.391Z,12.10
2023-01-20T17:34:23.785Z,18.63
2023-01-20T17:36:52.066Z,14.18
2023-01-20T17:39:20.462Z,16.08
2023-01-20T17:41:48.611Z,17.02
2023-01-20T17:44:18.222Z,16.38
2023-01-20T17:46:50.030Z,15.20
2023-01-20T17:49:18.780Z,14.63
2023-01-20T17:51:47.920Z,13.03
2023-01-20T17:54:16.437Z,16.63
2023-01-20T17:56:45.986Z,12.25
2023-01-20T17:59:14.347Z,17.75
2023-01-20T18:01:44.268Z,16.40
2023-01-20T18:04:12.749Z,16.65
2023-01-20T18:06:41.014Z,16.55
2023-01-20T18:09:09.354Z,19.48
2023-01-20T18:11:39.065Z,17.53
2023-01-20T18:14:08.765Z,16.20
2023-01-20T18:16:39.035Z,19.60
2023-01-20T18:19:09.391Z,16.48
2023-01-20T18:21:38.691Z,15.35
2023-01-20T18:24:08.561Z,15.85
2023-01-20T18:26:38.605Z,22.60
2023-01-20T18:29:15.139Z,16.63
2023-01-20T18:31:44.750Z,20.27
2023-01-20T18:34:16.295Z,17.37
2023-01-20T18:36:46.487Z,21.70
2023-01-20T18:39:16.680Z,20.30
2023-01-20T18:41:45.526Z,20.17
2023-01-20T18:44:14.295Z,22.07
2023-01-20T18:46:42.875Z,19.58
2023-01-20T18:49:14.986Z,21.65
2023-01-20T18:51:44.615Z,21.27
2023-01-20T18:54:17.500Z,23.50
2023-01-20T18:56:46.501Z,22.90
2023-01-20T18:59:15.419Z,20.58
2023-01-20T19:01:44.287Z,22.27
2023-01-20T19:04:14.821Z,24.05
2023-01-20T19:06:45.077Z,29.10
2023-01-20T19:09:15.670Z,30.58
2023-01-20T19:11:44.016Z,26.45
2023-01-20T19:14:14.563Z,27.98
2023-01-20T19:16:45.553Z,32.83
2023-01-20T19:19:17.413Z,31.20
2023-01-20T19:21:46.218Z,28.45
2023-01-20T19:24:20.190Z,30.47
2023-01-20T19:26:48.762Z,26.50
2023-01-20T19:29:18.899Z,30.73
2023-01-20T19:31:49.130Z,23.13
2023-01-20T19:34:19.104Z,26.85
2023-01-20T19:36:47.481Z,24.80
2023-01-20T19:39:16.160Z,30.03
2023-01-20T19:41:44.427Z,26.02
2023-01-20T19:44:13.929Z,24.85
2023-01-20T19:46:42.478Z,27.08
2023-01-20T19:49:11.846Z,25.25
2023-01-20T19:51:41.447Z,21.80
2023-01-20T19:54:12.266Z,24.10
2023-01-20T19:56:41.466Z,27.35
2023-01-20T19:59:13.529Z,20.02
2023-01-20T20:01:42.047Z,22.38
2023-01-20T20:04:12.988Z,22.70
2023-01-20T20:06:47.747Z,20.13
2023-01-20T20:09:18.028Z,27.88
2023-01-20T20:11:46.696Z,28.33
2023-01-20T20:14:17.640Z,24.45
2023-01-20T20:16:46.079Z,24.90
2023-01-20T20:19:16.197Z,25.25
2023-01-20T20:21:46.572Z,23.33
2023-01-20T20:24:17.678Z,24.63
2023-01-20T20:26:46.852Z,38.00
2023-01-20T20:29:16.821Z,27.95
2023-01-20T20:31:45.235Z,26.02
2023-01-20T20:34:15.592Z,22.88
2023-01-20T20:36:46.443Z,24.80
2023-01-20T20:39:18.228Z,27.88
2023-01-20T20:41:47.349Z,26.23
2023-01-20T20:44:15.942Z,27.70
2023-01-20T20:46:44.720Z,24.27
2023-01-20T20:49:15.800Z,25.20
2023-01-20T20:51:46.170Z,24.73
2023-01-20T20:54:16.958Z,27.08
2023-01-20T20:56:45.567Z,22.08
2023-01-20T20:59:14.207Z,23.05
2023-01-20T21:01:42.616Z,24.70
2023-01-20T21:04:11.684Z,22.65
2023-01-20T21:06:40.151Z,21.67
2023-01-20T21:09:10.347Z,21.73
2023-01-20T21:11:39.403Z,24.02
2023-01-20T21:14:08.675Z,23.70
2023-01-20T21:16:37.890Z,22.67
2023-01-20T21:19:06.268Z,28.13
2023-01-20T21:21:34.676Z,25.90
2023-01-20T21:24:03.050Z,26.98
2023-01-20T21:26:32.699Z,25.00
2023-01-20T21:29:03.760Z,21.33
2023-01-20T21:31:32.576Z,24.33
2023-01-20T21:34:01.759Z,24.00
2023-01-20T21:36:31.231Z,25.45
2023-01-20T21:39:00.038Z,22.17
2023-01-20T21:41:28.389Z,29.17
2023-01-20T21:44:15.379Z,25.50
2023-01-20T21:46:43.818Z,23.92
2023-01-20T21:49:30.707Z,25.00
2023-01-20T21:52:16.302Z,23.63
2023-01-20T21:54:45.377Z,26.25
2023-01-20T21:57:14.274Z,24.10
2023-01-20T21:59:45.730Z,24.05
2023-01-20T22:02:14.880Z,27.58
2023-01-20T22:04:43.634Z,25.30
2023-01-20T22:07:11.891Z,27.77
2023-01-20T22:09:40.324Z,22.90
2023-01-20T22:12:09.057Z,25.13
2023-01-20T22:14:37.500Z,24.85
2023-01-20T22:17:07.282Z,23.95
2023-01-20T22:19:36.093Z,24.05
2023-01-20T22:22:05.000Z,24.10
2023-01-20T22:24:33.425Z,23.83
2023-01-20T22:27:02.855Z,25.38
2023-01-20T22:29:31.391Z,26.67
2023-01-20T22:32:02.424Z,23.25
2023-01-20T22:34:32.182Z,25.60
2023-01-20T22:37:00.841Z,23.55
2023-01-20T22:39:29.504Z,21.15
2023-01-20T22:41:57.969Z,26.30
2023-01-20T22:44:26.356Z,23.30
2023-01-20T22:46:54.682Z,26.30
2023-01-20T22:49:23.188Z,29.80
2023-01-20T22:51:55.420Z,24.70
2023-01-20T22:54:23.728Z,29.60
2023-01-20T22:56:52.168Z,32.22
2023-01-20T22:59:20.389Z,27.45
2023-01-20T23:01:48.668Z,29.92
2023-01-20T23:04:16.885Z,25.80
2023-01-20T23:06:45.091Z,23.75
2023-01-20T23:09:16.269Z,23.20
2023-01-20T23:11:44.757Z,26.20
2023-01-20T23:14:13.594Z,26.05
2023-01-20T23:16:42.442Z,30.17
2023-01-20T23:19:10.954Z,25.17
2023-01-20T23:21:39.732Z,21.93
2023-01-20T23:24:09.075Z,24.25
2023-01-20T23:26:38.692Z,21.55
2023-01-20T23:29:07.054Z,22.23
2023-01-20T23:31:35.580Z,20.65
2023-01-20T23:34:05.083Z,21.90
2023-01-20T23:36:33.566Z,24.17
2023-01-20T23:39:04.190Z,26.37
2023-01-20T23:41:32.390Z,26.65
2023-01-20T23:44:02.761Z,24.58
2023-01-20T23:46:31.030Z,26.38
2023-01-20T23:48:59.402Z,24.73
2023-01-20T23:51:27.894Z,21.73
2023-01-20T23:53:56.914Z,23.65
2023-01-20T23:56:27.610Z,25.67
2023-01-20T23:58:55.886Z,23.77
